Time;durP1;ratioP1;P1;durP2;ratioP2;P2;SDS_P1;SDS_P2;PMS_P1;PMS_P2;Temp;Humidity;BMP_temperature;BMP_pressure;BME280_temperature;BME280_humidity;BME280_pressure;Samples;Min_cycle;Max_cycle;Signal;HPM_P1;HPM_P2
2023/07/26 00:02:02;;;;;;;0.85;0.85;;;;;;;;;;5063933;28;20500;-79
2023/07/26 00:04:28;;;;;;;0.90;0.70;;;;;;;;;;5067294;28;20371;-79
2023/07/26 00:06:54;;;;;;;0.80;0.80;;;;;;;;;;5067354;28;20738;-79
2023/07/26 00:09:20;;;;;;;1.40;0.70;;;;;;;;;;5052920;28;20437;-79
2023/07/26 00:11:46;;;;;;;2.40;0.70;;;;;;;;;;5050746;28;20381;-79
2023/07/26 00:14:13;;;;;;;0.50;0.50;;;;;;;;;;5052644;28;20409;-79
2023/07/26 00:16:39;;;;;;;0.80;0.60;;;;;;;;;;5053036;28;20902;-79
2023/07/26 00:19:05;;;;;;;0.50;0.50;;;;;;;;;;5035003;28;20747;-79
2023/07/26 00:21:32;;;;;;;0.70;0.60;;;;;;;;;;5052893;28;20405;-79
2023/07/26 00:23:59;;;;;;;0.60;0.50;;;;;;;;;;5052797;28;20447;-79
2023/07/26 00:26:25;;;;;;;0.60;0.55;;;;;;;;;;5053015;28;20754;-79
2023/07/26 00:28:52;;;;;;;0.93;0.60;;;;;;;;;;5052786;28;20455;-79
2023/07/26 00:31:18;;;;;;;1.50;0.63;;;;;;;;;;5052855;28;20426;-79
2023/07/26 00:33:44;;;;;;;1.10;0.80;;;;;;;;;;5066460;28;20390;-79
2023/07/26 00:36:10;;;;;;;0.75;0.75;;;;;;;;;;5066963;28;20378;-79
2023/07/26 00:38:36;;;;;;;0.87;0.87;;;;;;;;;;5043503;28;20473;-79
2023/07/26 00:41:02;;;;;;;1.10;0.88;;;;;;;;;;5060133;28;20467;-80
2023/07/26 00:43:28;;;;;;;1.20;1.08;;;;;;;;;;5065725;28;20720;-79
2023/07/26 00:45:54;;;;;;;0.93;0.93;;;;;;;;;;5065277;28;20917;-80
2023/07/26 00:48:20;;;;;;;1.23;1.13;;;;;;;;;;5063645;28;20452;-80
2023/07/26 00:50:47;;;;;;;1.50;1.40;;;;;;;;;;5067039;28;20379;-80
2023/07/26 00:53:14;;;;;;;1.45;1.30;;;;;;;;;;5053279;28;20390;-80
2023/07/26 00:55:43;;;;;;;1.40;1.30;;;;;;;;;;5049101;28;20930;-80
2023/07/26 00:58:10;;;;;;;1.40;1.30;;;;;;;;;;5062281;28;20386;-81
2023/07/26 01:00:37;;;;;;;1.80;1.70;;;;;;;;;;5066452;28;20844;-80
2023/07/26 01:03:03;;;;;;;2.00;1.90;;;;;;;;;;5063938;28;20389;-80
2023/07/26 01:05:32;;;;;;;2.08;1.90;;;;;;;;;;5065158;28;20462;-80
2023/07/26 01:07:58;;;;;;;2.70;2.38;;;;;;;;;;5060372;28;20396;-80
2023/07/26 01:10:30;;;;;;;2.35;2.20;;;;;;;;;;5051876;28;20390;-80
2023/07/26 01:13:11;;;;;;;2.10;2.00;;;;;;;;;;5062760;28;20470;-80
2023/07/26 01:15:38;;;;;;;2.15;2.05;;;;;;;;;;5060699;28;20384;-80
2023/07/26 01:18:07;;;;;;;3.00;2.10;;;;;;;;;;5062730;28;20926;-80
2023/07/26 01:20:33;;;;;;;2.38;2.05;;;;;;;;;;5043878;28;20389;-80
2023/07/26 01:22:59;;;;;;;2.20;2.00;;;;;;;;;;5061274;28;20401;-80
2023/07/26 01:25:25;;;;;;;2.10;2.00;;;;;;;;;;5063663;28;20385;-80
2023/07/26 01:27:51;;;;;;;3.28;2.25;;;;;;;;;;5059359;28;20388;-81
2023/07/26 01:30:18;;;;;;;1.90;1.80;;;;;;;;;;5046977;28;20966;-80
2023/07/26 01:32:45;;;;;;;2.20;2.10;;;;;;;;;;5059446;28;20739;-80
2023/07/26 01:35:11;;;;;;;1.70;1.60;;;;;;;;;;5063568;28;20802;-80
2023/07/26 01:37:38;;;;;;;1.67;1.57;;;;;;;;;;5061333;28;20387;-80
2023/07/26 01:40:05;;;;;;;1.85;1.70;;;;;;;;;;5061602;28;20383;-80
2023/07/26 01:42:32;;;;;;;1.70;1.60;;;;;;;;;;5062748;28;20876;-80
2023/07/26 01:45:02;;;;;;;2.70;1.70;;;;;;;;;;5060015;28;20382;-81
2023/07/26 01:47:28;;;;;;;2.25;1.70;;;;;;;;;;5064033;28;20404;-81
2023/07/26 01:49:54;;;;;;;1.38;1.30;;;;;;;;;;5050951;28;20906;-81
2023/07/26 01:52:20;;;;;;;1.48;1.38;;;;;;;;;;5064735;28;20445;-81
2023/07/26 01:54:46;;;;;;;1.10;1.10;;;;;;;;;;5052771;28;20413;-80
2023/07/26 01:57:12;;;;;;;1.40;1.30;;;;;;;;;;5061404;28;20933;-80
2023/07/26 01:59:38;;;;;;;1.40;1.30;;;;;;;;;;5061781;28;20949;-80
2023/07/26 02:02:04;;;;;;;1.40;1.30;;;;;;;;;;5060422;28;20448;-80
2023/07/26 02:04:30;;;;;;;1.90;1.47;;;;;;;;;;5063717;28;20378;-80
2023/07/26 02:06:56;;;;;;;1.70;1.60;;;;;;;;;;5065788;28;20404;-80
2023/07/26 02:09:22;;;;;;;2.13;1.92;;;;;;;;;;5051592;28;20385;-80
2023/07/26 02:11:49;;;;;;;5.45;2.60;;;;;;;;;;5066569;28;20425;-80
2023/07/26 02:14:15;;;;;;;3.40;3.10;;;;;;;;;;5064436;28;20381;-80
2023/07/26 02:16:41;;;;;;;3.25;3.05;;;;;;;;;;5051808;28;20377;-80
2023/07/26 02:19:07;;;;;;;3.47;3.17;;;;;;;;;;5054656;28;20715;-80
2023/07/26 02:21:33;;;;;;;3.58;3.28;;;;;;;;;;5054346;28;20404;-81
2023/07/26 02:23:59;;;;;;;3.67;3.37;;;;;;;;;;5054995;28;20386;-80
2023/07/26 02:26:25;;;;;;;4.20;3.80;;;;;;;;;;5055093;28;20388;-80
2023/07/26 02:28:51;;;;;;;3.90;3.60;;;;;;;;;;5056390;28;20378;-80
2023/07/26 02:31:18;;;;;;;3.72;3.47;;;;;;;;;;5067494;28;20477;-80
2023/07/26 02:33:44;;;;;;;4.72;4.32;;;;;;;;;;5054969;28;20882;-80
2023/07/26 02:36:10;;;;;;;4.70;4.22;;;;;;;;;;5054746;28;20444;-80
2023/07/26 02:38:36;;;;;;;4.78;4.38;;;;;;;;;;5036844;28;20712;-80
2023/07/26 02:41:02;;;;;;;4.88;4.20;;;;;;;;;;5058247;28;20413;-80
2023/07/26 02:43:28;;;;;;;4.50;4.20;;;;;;;;;;5064946;28;20468;-80
2023/07/26 02:45:54;;;;;;;4.93;4.53;;;;;;;;;;5054445;28;20932;-80
2023/07/26 02:48:20;;;;;;;4.88;4.47;;;;;;;;;;5054639;28;20456;-80
2023/07/26 02:50:46;;;;;;;5.60;4.50;;;;;;;;;;5054488;28;20937;-80
2023/07/26 02:53:12;;;;;;;4.40;4.10;;;;;;;;;;5054304;28;20385;-80
2023/07/26 02:55:41;;;;;;;4.47;4.10;;;;;;;;;;5054554;28;20476;-81
2023/07/26 02:58:07;;;;;;;4.50;3.93;;;;;;;;;;5054245;28;20444;-80
2023/07/26 03:00:33;;;;;;;5.20;4.70;;;;;;;;;;5040279;28;20411;-80
2023/07/26 03:02:59;;;;;;;4.43;4.13;;;;;;;;;;5108785;28;20435;-80
2023/07/26 03:05:25;;;;;;;4.37;3.97;;;;;;;;;;5099094;28;20380;-80
2023/07/26 03:07:51;;;;;;;5.45;3.95;;;;;;;;;;5104771;28;20440;-80
2023/07/26 03:10:17;;;;;;;3.92;3.63;;;;;;;;;;5094235;28;20382;-80
2023/07/26 03:12:44;;;;;;;3.95;3.67;;;;;;;;;;5094654;28;20759;-80
2023/07/26 03:15:10;;;;;;;3.75;3.45;;;;;;;;;;5094286;28;20839;-80
2023/07/26 03:17:36;;;;;;;3.55;3.25;;;;;;;;;;5094288;28;20381;-80
2023/07/26 03:20:03;;;;;;;4.13;3.07;;;;;;;;;;5094516;28;20370;-80
2023/07/26 03:22:29;;;;;;;3.13;2.90;;;;;;;;;;5094382;28;20378;-81
2023/07/26 03:24:55;;;;;;;3.15;2.83;;;;;;;;;;5094213;28;20377;-80
2023/07/26 03:27:21;;;;;;;3.15;2.88;;;;;;;;;;5108468;28;20855;-80
2023/07/26 03:29:47;;;;;;;2.78;2.58;;;;;;;;;;5093533;28;20378;-81
2023/07/26 03:32:13;;;;;;;2.50;2.30;;;;;;;;;;5094089;28;20402;-80
2023/07/26 03:34:39;;;;;;;2.63;2.42;;;;;;;;;;5094157;28;20393;-80
2023/07/26 03:37:05;;;;;;;2.65;2.20;;;;;;;;;;5094006;28;20843;-80
2023/07/26 03:39:31;;;;;;;2.55;2.25;;;;;;;;;;5093817;28;20374;-80
2023/07/26 03:41:57;;;;;;;2.40;2.20;;;;;;;;;;5093665;28;20370;-80
2023/07/26 03:44:23;;;;;;;2.67;2.47;;;;;;;;;;5093866;28;20405;-80
2023/07/26 03:46:49;;;;;;;4.63;2.70;;;;;;;;;;5093800;28;20381;-80
2023/07/26 03:49:15;;;;;;;2.63;2.42;;;;;;;;;;5093645;28;20378;-80
2023/07/26 03:51:41;;;;;;;2.47;2.28;;;;;;;;;;5093537;28;20402;-80
2023/07/26 03:54:07;;;;;;;4.30;2.47;;;;;;;;;;5093848;28;20410;-80
2023/07/26 03:56:33;;;;;;;2.50;2.30;;;;;;;;;;5093532;28;20378;-80
2023/07/26 03:58:59;;;;;;;2.63;2.42;;;;;;;;;;5093546;28;20379;-80
2023/07/26 04:01:25;;;;;;;2.80;2.60;;;;;;;;;;5093175;28;20409;-80
2023/07/26 04:03:51;;;;;;;2.72;2.53;;;;;;;;;;5103369;28;20381;-80
2023/07/26 04:06:17;;;;;;;3.47;3.17;;;;;;;;;;5109668;28;20463;-80
2023/07/26 04:08:43;;;;;;;3.20;2.90;;;;;;;;;;5095529;28;20918;-80
2023/07/26 04:11:11;;;;;;;3.88;3.10;;;;;;;;;;5093260;28;20406;-80
2023/07/26 04:13:37;;;;;;;3.28;2.85;;;;;;;;;;5093314;28;20382;-80
2023/07/26 04:16:21;;;;;;;2.97;2.77;;;;;;;;;;5093092;28;20398;-80
2023/07/26 04:18:48;;;;;;;3.17;2.88;;;;;;;;;;5089849;28;20878;-80
2023/07/26 04:21:15;;;;;;;3.10;2.80;;;;;;;;;;5093142;28;20386;-80
2023/07/26 04:23:41;;;;;;;3.50;3.10;;;;;;;;;;5092940;28;20374;-80
2023/07/26 04:26:07;;;;;;;3.55;3.25;;;;;;;;;;5074247;28;20390;-80
2023/07/26 04:28:33;;;;;;;4.07;3.67;;;;;;;;;;5102235;28;20536;-80
2023/07/26 04:30:59;;;;;;;4.28;3.88;;;;;;;;;;5098899;28;20390;-80
2023/07/26 04:33:25;;;;;;;4.55;3.78;;;;;;;;;;5100225;28;20928;-80
2023/07/26 04:35:51;;;;;;;3.78;3.47;;;;;;;;;;5100949;28;20386;-80
2023/07/26 04:38:20;;;;;;;4.20;3.70;;;;;;;;;;5098087;28;20426;-80
2023/07/26 04:40:47;;;;;;;3.97;3.67;;;;;;;;;;5102247;28;20372;-79
2023/07/26 04:43:16;;;;;;;3.88;3.58;;;;;;;;;;5097852;28;20374;-79
2023/07/26 04:45:46;;;;;;;3.42;3.22;;;;;;;;;;5102962;28;20369;-80
2023/07/26 04:48:12;;;;;;;4.20;3.28;;;;;;;;;;5074535;28;20981;-80
2023/07/26 04:50:38;;;;;;;2.80;2.60;;;;;;;;;;5101719;28;20489;-80
2023/07/26 04:53:04;;;;;;;3.08;2.75;;;;;;;;;;5098747;28;20394;-80
2023/07/26 04:55:31;;;;;;;3.50;3.20;;;;;;;;;;5100178;28;20377;-80
2023/07/26 04:57:56;;;;;;;3.38;3.08;;;;;;;;;;5100763;28;20378;-80
2023/07/26 05:02:52;;;;;;;3.60;3.30;;;;;;;;;;5116831;27;20839;-83
2023/07/26 05:05:18;;;;;;;3.40;3.10;;;;;;;;;;5097908;28;20392;-82
2023/07/26 05:07:44;;;;;;;3.42;3.13;;;;;;;;;;5112880;28;20815;-82
2023/07/26 05:10:10;;;;;;;2.80;2.60;;;;;;;;;;5109529;28;20384;-82
2023/07/26 05:12:36;;;;;;;2.72;2.53;;;;;;;;;;5092203;28;20489;-82
2023/07/26 05:15:02;;;;;;;2.95;2.75;;;;;;;;;;5092174;28;20460;-82
2023/07/26 05:17:28;;;;;;;2.72;2.50;;;;;;;;;;5086429;28;20440;-82
2023/07/26 05:19:54;;;;;;;2.80;2.60;;;;;;;;;;5091960;28;20374;-83
2023/07/26 05:22:20;;;;;;;3.42;2.83;;;;;;;;;;5091878;28;20453;-82
2023/07/26 05:24:46;;;;;;;3.17;2.80;;;;;;;;;;5092345;28;20407;-82
2023/07/26 05:27:12;;;;;;;2.78;2.58;;;;;;;;;;5092032;28;20384;-82
2023/07/26 05:29:38;;;;;;;2.53;2.22;;;;;;;;;;5093762;28;20850;-82
2023/07/26 05:32:04;;;;;;;2.40;2.30;;;;;;;;;;5092138;28;20463;-82
2023/07/26 05:34:30;;;;;;;2.80;2.60;;;;;;;;;;5091857;28;20461;-82
2023/07/26 05:36:56;;;;;;;3.00;2.70;;;;;;;;;;5092400;28;20378;-82
2023/07/26 05:39:22;;;;;;;2.67;2.45;;;;;;;;;;5093098;28;20374;-82
2023/07/26 05:41:48;;;;;;;2.73;2.53;;;;;;;;;;5091965;28;20460;-82
2023/07/26 05:44:14;;;;;;;3.30;2.70;;;;;;;;;;5091836;28;20382;-82
2023/07/26 05:46:40;;;;;;;3.20;2.90;;;;;;;;;;5091954;28;20386;-82
2023/07/26 05:49:06;;;;;;;3.00;2.70;;;;;;;;;;5093885;28;20406;-82
2023/07/26 05:51:32;;;;;;;4.10;3.80;;;;;;;;;;5093911;28;20437;-82
2023/07/26 05:53:58;;;;;;;3.38;3.08;;;;;;;;;;5095979;28;20402;-82
2023/07/26 05:56:24;;;;;;;3.95;3.20;;;;;;;;;;5096094;28;20445;-82
2023/07/26 05:58:50;;;;;;;3.63;3.03;;;;;;;;;;5096003;28;20420;-82
2023/07/26 06:01:16;;;;;;;3.10;2.80;;;;;;;;;;5095598;28;20874;-82
2023/07/26 06:03:43;;;;;;;3.20;2.90;;;;;;;;;;5095773;28;20378;-82
2023/07/26 06:06:10;;;;;;;3.50;2.70;;;;;;;;;;5095718;28;20374;-82
2023/07/26 06:08:36;;;;;;;3.55;3.20;;;;;;;;;;5095605;28;20385;-83
2023/07/26 06:11:02;;;;;;;3.88;3.15;;;;;;;;;;5095638;28;20382;-83
2023/07/26 06:13:27;;;;;;;3.13;2.83;;;;;;;;;;5094768;28;20393;-83
2023/07/26 06:15:53;;;;;;;3.40;3.10;;;;;;;;;;5093094;28;20383;-83
2023/07/26 06:18:20;;;;;;;3.15;2.95;;;;;;;;;;5094939;28;20377;-83
2023/07/26 06:20:46;;;;;;;3.38;3.08;;;;;;;;;;5095067;28;20370;-82
2023/07/26 06:23:12;;;;;;;3.90;2.97;;;;;;;;;;5095131;28;20890;-83
2023/07/26 06:25:38;;;;;;;3.17;2.88;;;;;;;;;;5095418;28;20378;-83
2023/07/26 06:28:04;;;;;;;2.92;2.60;;;;;;;;;;5095237;28;20487;-83
2023/07/26 06:30:30;;;;;;;4.00;2.90;;;;;;;;;;5094498;28;20444;-83
2023/07/26 06:32:56;;;;;;;3.67;3.15;;;;;;;;;;5094468;28;20435;-83
2023/07/26 06:35:22;;;;;;;2.90;2.63;;;;;;;;;;5094555;28;20942;-83
2023/07/26 06:37:48;;;;;;;3.20;2.50;;;;;;;;;;5093015;28;20374;-83
2023/07/26 06:40:14;;;;;;;4.45;3.00;;;;;;;;;;5094842;28;20382;-82
2023/07/26 06:42:40;;;;;;;2.95;2.75;;;;;;;;;;5094865;28;20389;-81
2023/07/26 06:45:06;;;;;;;4.30;3.00;;;;;;;;;;5095017;28;20436;-81
2023/07/26 06:47:32;;;;;;;5.82;3.85;;;;;;;;;;5094479;28;20382;-81
2023/07/26 06:49:58;;;;;;;4.03;3.40;;;;;;;;;;5094832;28;20477;-81
2023/07/26 06:52:28;;;;;;;4.67;4.03;;;;;;;;;;5094225;28;20406;-81
2023/07/26 06:54:54;;;;;;;4.55;3.45;;;;;;;;;;5085566;28;20374;-81
2023/07/26 06:57:20;;;;;;;3.80;3.40;;;;;;;;;;5094666;28;20380;-81
2023/07/26 06:59:46;;;;;;;4.75;4.20;;;;;;;;;;5094603;28;20774;-81
2023/07/26 07:02:12;;;;;;;4.78;3.83;;;;;;;;;;5094393;28;20409;-81
2023/07/26 07:04:38;;;;;;;3.72;3.42;;;;;;;;;;5093383;28;20378;-82
2023/07/26 07:07:04;;;;;;;3.25;3.00;;;;;;;;;;5094320;28;20381;-81
2023/07/26 07:09:30;;;;;;;3.95;3.60;;;;;;;;;;5094529;28;20421;-81
2023/07/26 07:11:56;;;;;;;4.60;4.10;;;;;;;;;;5094201;28;20453;-81
2023/07/26 07:14:22;;;;;;;4.55;3.50;;;;;;;;;;5094412;28;20370;-81
2023/07/26 07:16:48;;;;;;;3.58;3.28;;;;;;;;;;5092239;28;20378;-81
2023/07/26 07:19:14;;;;;;;3.70;3.00;;;;;;;;;;5094316;28;20507;-81
2023/07/26 07:21:41;;;;;;;4.57;4.00;;;;;;;;;;5094300;28;20377;-81
2023/07/26 07:24:07;;;;;;;4.37;3.57;;;;;;;;;;5094204;28;20396;-81
2023/07/26 07:26:33;;;;;;;4.50;3.95;;;;;;;;;;5094132;28;20467;-81
2023/07/26 07:28:59;;;;;;;3.92;3.35;;;;;;;;;;5094076;28;20436;-81
2023/07/26 07:31:25;;;;;;;4.13;3.20;;;;;;;;;;5093990;28;20878;-82
2023/07/26 07:33:51;;;;;;;4.47;3.42;;;;;;;;;;5094193;28;20385;-81
2023/07/26 07:36:19;;;;;;;5.85;3.25;;;;;;;;;;5094037;28;20382;-81
2023/07/26 07:38:45;;;;;;;3.57;3.20;;;;;;;;;;5093946;28;20370;-82
2023/07/26 07:41:11;;;;;;;4.20;3.80;;;;;;;;;;5092370;28;20393;-82
2023/07/26 07:43:38;;;;;;;3.75;3.45;;;;;;;;;;5094012;28;20413;-81
2023/07/26 07:46:04;;;;;;;4.00;3.60;;;;;;;;;;5093719;28;20378;-81
2023/07/26 07:48:30;;;;;;;3.80;3.47;;;;;;;;;;5093711;28;20385;-82
2023/07/26 07:50:56;;;;;;;3.60;3.30;;;;;;;;;;5093494;28;20492;-81
2023/07/26 07:53:23;;;;;;;4.40;3.45;;;;;;;;;;5093518;28;20397;-82
2023/07/26 07:55:49;;;;;;;3.60;3.30;;;;;;;;;;5090587;28;20370;-82
2023/07/26 07:58:15;;;;;;;4.68;3.47;;;;;;;;;;5093457;28;20754;-82
2023/07/26 08:00:42;;;;;;;4.05;3.20;;;;;;;;;;5093429;28;20476;-82
2023/07/26 08:03:08;;;;;;;3.77;3.20;;;;;;;;;;5093420;28;20862;-82
2023/07/26 08:05:35;;;;;;;3.80;3.38;;;;;;;;;;5093629;28;20385;-82
2023/07/26 08:08:01;;;;;;;4.57;2.97;;;;;;;;;;5093416;28;20431;-82
2023/07/26 08:10:27;;;;;;;5.05;2.88;;;;;;;;;;5093150;28;20818;-82
2023/07/26 08:12:53;;;;;;;2.97;2.58;;;;;;;;;;5093409;28;20413;-82
2023/07/26 08:15:19;;;;;;;3.45;2.90;;;;;;;;;;5092872;28;20382;-83
2023/07/26 08:17:45;;;;;;;4.53;2.83;;;;;;;;;;5092830;28;20444;-83
2023/07/26 08:20:14;;;;;;;2.88;2.45;;;;;;;;;;5090651;28;20939;-83
2023/07/26 08:22:40;;;;;;;2.90;2.50;;;;;;;;;;5092652;28;20443;-85
2023/07/26 08:25:07;;;;;;;3.30;2.00;;;;;;;;;;5093028;28;20786;-83
2023/07/26 08:27:34;;;;;;;1.55;1.45;;;;;;;;;;5091983;28;20477;-84
2023/07/26 08:30:00;;;;;;;1.95;1.23;;;;;;;;;;5091291;28;20374;-83
2023/07/26 08:32:25;;;;;;;1.80;1.35;;;;;;;;;;5091519;28;20895;-83
2023/07/26 08:34:51;;;;;;;2.05;1.35;;;;;;;;;;5093936;28;20441;-84
2023/07/26 08:37:18;;;;;;;1.73;1.35;;;;;;;;;;5092574;28;20374;-77
2023/07/26 08:39:44;;;;;;;1.92;1.20;;;;;;;;;;5093083;28;20366;-78
2023/07/26 08:42:11;;;;;;;1.60;1.00;;;;;;;;;;5092781;28;20453;-78
2023/07/26 08:44:38;;;;;;;2.45;1.00;;;;;;;;;;5092455;28;20408;-78
2023/07/26 08:47:05;;;;;;;1.20;0.90;;;;;;;;;;5092235;28;20382;-78
2023/07/26 08:49:32;;;;;;;1.10;0.90;;;;;;;;;;5092244;28;20386;-78
2023/07/26 08:51:58;;;;;;;1.38;1.10;;;;;;;;;;5092373;28;20543;-78
2023/07/26 08:54:24;;;;;;;0.93;0.90;;;;;;;;;;5092615;28;20380;-78
2023/07/26 08:56:51;;;;;;;0.93;0.80;;;;;;;;;;5093118;28;20461;-78
2023/07/26 08:59:17;;;;;;;1.02;0.82;;;;;;;;;;5092604;28;20402;-78
2023/07/26 09:01:43;;;;;;;1.27;0.90;;;;;;;;;;5092615;28;20460;-78
2023/07/26 09:04:10;;;;;;;1.98;1.10;;;;;;;;;;5092101;28;20374;-78
2023/07/26 09:06:44;;;;;;;1.30;0.75;;;;;;;;;;5092330;28;20378;-78
2023/07/26 09:09:11;;;;;;;1.38;0.90;;;;;;;;;;5073804;28;20851;-78
2023/07/26 09:11:48;;;;;;;0.88;0.77;;;;;;;;;;5092298;28;20402;-78
2023/07/26 09:14:14;;;;;;;1.40;1.00;;;;;;;;;;5091063;28;20461;-78
2023/07/26 09:16:40;;;;;;;2.10;1.30;;;;;;;;;;5092008;28;20461;-78
2023/07/26 09:19:06;;;;;;;1.05;0.90;;;;;;;;;;5092163;28;20862;-78
2023/07/26 09:21:35;;;;;;;1.30;1.00;;;;;;;;;;5092111;28;20413;-78
2023/07/26 09:24:03;;;;;;;0.95;0.85;;;;;;;;;;5091826;28;20882;-77
2023/07/26 09:26:39;;;;;;;1.25;0.90;;;;;;;;;;5091575;28;20386;-78
2023/07/26 09:29:16;;;;;;;0.93;0.80;;;;;;;;;;5091943;28;20401;-79
2023/07/26 09:31:43;;;;;;;1.08;0.80;;;;;;;;;;5092215;28;20406;-78
2023/07/26 09:34:13;;;;;;;0.98;0.88;;;;;;;;;;5092040;28;20377;-79
2023/07/26 09:36:43;;;;;;;0.90;0.70;;;;;;;;;;5092146;28;20374;-79
2023/07/26 09:39:09;;;;;;;2.20;0.80;;;;;;;;;;5092188;28;20378;-77
2023/07/26 09:41:35;;;;;;;0.50;0.50;;;;;;;;;;5092269;28;20465;-77
2023/07/26 09:44:01;;;;;;;0.73;0.70;;;;;;;;;;5091924;28;20417;-80
2023/07/26 09:46:27;;;;;;;1.37;0.70;;;;;;;;;;5090245;28;20471;-77
2023/07/26 09:49:01;;;;;;;1.20;0.80;;;;;;;;;;5087544;28;20376;-78
2023/07/26 09:51:31;;;;;;;0.82;0.77;;;;;;;;;;5091357;28;20924;-78
2023/07/26 09:53:57;;;;;;;2.37;0.80;;;;;;;;;;5084713;28;20397;-80
2023/07/26 09:56:23;;;;;;;1.10;0.80;;;;;;;;;;5091789;28;20370;-78
2023/07/26 09:58:50;;;;;;;1.60;0.82;;;;;;;;;;5092144;28;20432;-78
2023/07/26 10:01:21;;;;;;;2.10;1.10;;;;;;;;;;5090950;28;20422;-78
2023/07/26 10:03:49;;;;;;;1.20;1.10;;;;;;;;;;5091320;28;20895;-78
2023/07/26 10:06:17;;;;;;;1.50;1.20;;;;;;;;;;5079660;28;20380;-78
2023/07/26 10:08:45;;;;;;;1.05;0.90;;;;;;;;;;5071562;28;20383;-78
2023/07/26 10:11:12;;;;;;;1.58;1.00;;;;;;;;;;5070368;28;20378;-79
2023/07/26 10:13:39;;;;;;;1.40;1.00;;;;;;;;;;5070921;28;20901;-78
2023/07/26 10:16:06;;;;;;;1.58;1.10;;;;;;;;;;5071613;28;20376;-78
2023/07/26 10:18:32;;;;;;;1.23;1.00;;;;;;;;;;5071446;28;20376;-78
2023/07/26 10:21:00;;;;;;;1.55;1.02;;;;;;;;;;5071379;28;20376;-78
2023/07/26 10:23:27;;;;;;;1.60;1.40;;;;;;;;;;5071519;28;20923;-78
2023/07/26 10:25:53;;;;;;;1.40;1.00;;;;;;;;;;5071322;28;20384;-78
2023/07/26 10:28:19;;;;;;;2.00;1.30;;;;;;;;;;5080086;28;20435;-78
2023/07/26 10:30:46;;;;;;;1.60;1.13;;;;;;;;;;5073550;28;20379;-79
2023/07/26 10:33:13;;;;;;;1.60;1.10;;;;;;;;;;5060505;28;20970;-79
2023/07/26 10:35:40;;;;;;;2.58;1.25;;;;;;;;;;5071242;28;20408;-78
2023/07/26 10:38:06;;;;;;;2.75;1.38;;;;;;;;;;5072203;28;20706;-79
2023/07/26 10:40:36;;;;;;;1.75;1.20;;;;;;;;;;5076478;28;20379;-79
2023/07/26 10:43:20;;;;;;;2.67;1.20;;;;;;;;;;5061120;28;20379;-78
2023/07/26 10:45:48;;;;;;;1.83;1.40;;;;;;;;;;5074671;28;20380;-78
2023/07/26 10:48:23;;;;;;;1.77;1.10;;;;;;;;;;5074953;28;20383;-77
2023/07/26 10:50:49;;;;;;;2.33;1.30;;;;;;;;;;5074457;28;20384;-78
2023/07/26 10:53:29;;;;;;;3.05;1.00;;;;;;;;;;5074528;28;20404;-78
2023/07/26 10:56:08;;;;;;;2.00;1.10;;;;;;;;;;5074467;28;20379;-78
2023/07/26 10:58:34;;;;;;;2.10;1.23;;;;;;;;;;5074290;28;20379;-78
2023/07/26 11:01:04;;;;;;;1.60;1.10;;;;;;;;;;5093636;22;20482;-78
2023/07/26 11:03:30;;;;;;;1.52;1.13;;;;;;;;;;5074615;28;20390;-79
2023/07/26 11:05:56;;;;;;;1.30;1.15;;;;;;;;;;5074880;28;20710;-79
2023/07/26 11:08:40;;;;;;;1.90;1.17;;;;;;;;;;5072940;28;20814;-79
2023/07/26 11:11:06;;;;;;;1.90;1.30;;;;;;;;;;5074280;28;20848;-78
2023/07/26 11:13:33;;;;;;;1.83;1.00;;;;;;;;;;5074569;28;20441;-78
2023/07/26 11:16:01;;;;;;;1.30;1.05;;;;;;;;;;5074778;28;20782;-78
2023/07/26 11:18:27;;;;;;;1.67;1.10;;;;;;;;;;5074494;28;20422;-78
2023/07/26 11:20:54;;;;;;;3.20;1.30;;;;;;;;;;5073907;28;20441;-78
2023/07/26 11:23:20;;;;;;;1.60;1.23;;;;;;;;;;5074378;28;20379;-78
2023/07/26 11:25:46;;;;;;;1.88;1.25;;;;;;;;;;5073546;28;20464;-78
2023/07/26 11:28:12;;;;;;;2.53;1.10;;;;;;;;;;5055783;28;20437;-78
2023/07/26 11:30:41;;;;;;;2.72;1.70;;;;;;;;;;5073657;28;20380;-78
2023/07/26 11:33:09;;;;;;;6.57;2.78;;;;;;;;;;5073893;28;20399;-78
2023/07/26 11:35:39;;;;;;;3.35;1.85;;;;;;;;;;5073889;28;20367;-77
2023/07/26 11:38:06;;;;;;;3.83;2.30;;;;;;;;;;5073903;28;20372;-77
2023/07/26 11:40:37;;;;;;;2.42;1.77;;;;;;;;;;5073745;28;20380;-78
2023/07/26 11:43:06;;;;;;;2.45;1.48;;;;;;;;;;5073989;28;20383;-77
2023/07/26 11:45:32;;;;;;;3.88;1.30;;;;;;;;;;5085970;28;20427;-77
2023/07/26 11:47:58;;;;;;;1.90;1.58;;;;;;;;;;5077293;28;20411;-77
2023/07/26 11:50:24;;;;;;;1.70;1.60;;;;;;;;;;5073833;28;20388;-77
2023/07/26 11:53:04;;;;;;;1.52;1.42;;;;;;;;;;5073193;28;20400;-78
2023/07/26 11:55:30;;;;;;;1.40;1.30;;;;;;;;;;5074217;28;20399;-78
2023/07/26 11:57:59;;;;;;;1.70;1.50;;;;;;;;;;5073856;28;20391;-78
2023/07/26 12:00:26;;;;;;;1.73;1.50;;;;;;;;;;5073769;28;20418;-78
2023/07/26 12:02:52;;;;;;;1.75;1.50;;;;;;;;;;5072367;28;20396;-78
2023/07/26 12:05:21;;;;;;;2.43;1.63;;;;;;;;;;5073031;28;20465;-78
2023/07/26 12:07:52;;;;;;;2.25;1.90;;;;;;;;;;5073527;28;20380;-78
2023/07/26 12:10:26;;;;;;;2.75;2.10;;;;;;;;;;5072593;28;20765;-78
2023/07/26 12:12:52;;;;;;;2.08;1.90;;;;;;;;;;5073036;28;20457;-78
2023/07/26 12:15:18;;;;;;;1.80;1.70;;;;;;;;;;5072696;28;20375;-78
2023/07/26 12:17:54;;;;;;;1.83;1.50;;;;;;;;;;5072481;28;20372;-78
2023/07/26 12:20:20;;;;;;;1.90;1.70;;;;;;;;;;5068111;28;20425;-78
2023/07/26 12:22:53;;;;;;;1.70;1.60;;;;;;;;;;5072504;28;20426;-78
2023/07/26 12:25:19;;;;;;;1.70;1.60;;;;;;;;;;5072273;28;20877;-78
2023/07/26 12:27:47;;;;;;;1.65;1.55;;;;;;;;;;5073027;28;20380;-78
2023/07/26 12:30:14;;;;;;;1.60;1.50;;;;;;;;;;5072968;28;20410;-78
2023/07/26 12:32:40;;;;;;;1.90;1.80;;;;;;;;;;5072849;28;20965;-78
2023/07/26 12:35:26;;;;;;;1.98;1.60;;;;;;;;;;5071577;28;20378;-78
2023/07/26 12:37:53;;;;;;;1.80;1.52;;;;;;;;;;5072852;28;20383;-78
2023/07/26 12:40:20;;;;;;;2.10;1.90;;;;;;;;;;5072832;28;20380;-78
2023/07/26 12:42:46;;;;;;;2.10;1.60;;;;;;;;;;5072843;28;20466;-78
2023/07/26 12:45:13;;;;;;;1.88;1.70;;;;;;;;;;5072161;28;20507;-78
2023/07/26 12:47:40;;;;;;;1.80;1.70;;;;;;;;;;5072440;28;20745;-78
2023/07/26 12:50:06;;;;;;;2.00;1.60;;;;;;;;;;5072254;28;20387;-78
2023/07/26 12:52:32;;;;;;;2.20;1.67;;;;;;;;;;5072345;28;20399;-78
2023/07/26 12:54:58;;;;;;;1.70;1.45;;;;;;;;;;5072492;28;20873;-78
2023/07/26 12:57:24;;;;;;;1.70;1.20;;;;;;;;;;5072621;28;20439;-78
2023/07/26 12:59:50;;;;;;;1.55;1.23;;;;;;;;;;5071733;28;20841;-78
2023/07/26 13:02:16;;;;;;;2.08;1.50;;;;;;;;;;5070383;28;20423;-78
2023/07/26 13:04:42;;;;;;;2.13;1.40;;;;;;;;;;5071422;28;20466;-78
2023/07/26 13:07:08;;;;;;;3.00;1.80;;;;;;;;;;5071481;28;20974;-78
2023/07/26 13:09:34;;;;;;;1.60;1.38;;;;;;;;;;5071610;28;20413;-78
2023/07/26 13:12:00;;;;;;;2.27;1.50;;;;;;;;;;5071238;28;20407;-78
2023/07/26 13:14:26;;;;;;;1.95;1.30;;;;;;;;;;5071573;28;20463;-78
2023/07/26 13:16:52;;;;;;;2.20;1.58;;;;;;;;;;5071086;28;20383;-78
2023/07/26 13:19:18;;;;;;;1.88;1.58;;;;;;;;;;5070807;28;20728;-78
2023/07/26 13:21:44;;;;;;;1.70;1.60;;;;;;;;;;5070290;28;20384;-78
2023/07/26 13:24:10;;;;;;;3.27;1.50;;;;;;;;;;5070454;28;20444;-78
2023/07/26 13:26:36;;;;;;;1.60;1.50;;;;;;;;;;5071341;28;20388;-78
2023/07/26 13:29:02;;;;;;;1.40;1.30;;;;;;;;;;5071008;28;20372;-78
2023/07/26 13:31:28;;;;;;;1.33;1.23;;;;;;;;;;5071139;28;20437;-78
2023/07/26 13:33:54;;;;;;;1.90;1.40;;;;;;;;;;5071129;28;20386;-78
2023/07/26 13:36:23;;;;;;;1.90;1.50;;;;;;;;;;5073782;28;20370;-78
2023/07/26 13:38:49;;;;;;;1.52;1.42;;;;;;;;;;5071177;28;20380;-78
2023/07/26 13:41:15;;;;;;;1.85;1.33;;;;;;;;;;5070914;28;20517;-78
2023/07/26 13:43:41;;;;;;;1.90;1.42;;;;;;;;;;5070838;28;20458;-78
2023/07/26 13:46:07;;;;;;;1.55;1.30;;;;;;;;;;5070925;28;20384;-78
2023/07/26 13:48:33;;;;;;;1.88;1.20;;;;;;;;;;5070702;28;20384;-78
2023/07/26 13:50:59;;;;;;;1.40;1.20;;;;;;;;;;5070358;28;20383;-78
2023/07/26 13:53:25;;;;;;;1.77;1.42;;;;;;;;;;5070621;28;20439;-78
2023/07/26 13:55:51;;;;;;;1.55;1.30;;;;;;;;;;5073070;28;20431;-78
2023/07/26 13:58:17;;;;;;;1.45;1.35;;;;;;;;;;5061590;28;20450;-78
2023/07/26 14:00:43;;;;;;;1.20;1.10;;;;;;;;;;5070479;28;20459;-79
2023/07/26 14:03:09;;;;;;;2.20;1.50;;;;;;;;;;5070780;28;20426;-78
2023/07/26 14:05:35;;;;;;;1.80;1.50;;;;;;;;;;5070595;28;20959;-78
2023/07/26 14:08:01;;;;;;;3.63;2.00;;;;;;;;;;5070651;28;20387;-78
2023/07/26 14:10:27;;;;;;;2.38;1.63;;;;;;;;;;5070074;28;20490;-78
2023/07/26 14:12:53;;;;;;;1.95;1.75;;;;;;;;;;5070846;28;20556;-79
2023/07/26 14:15:19;;;;;;;1.88;1.63;;;;;;;;;;5074759;28;20380;-78
2023/07/26 14:17:46;;;;;;;1.80;1.50;;;;;;;;;;5073395;28;20384;-78
2023/07/26 14:20:12;;;;;;;1.70;1.60;;;;;;;;;;5074410;28;20444;-78
2023/07/26 14:22:38;;;;;;;1.50;1.40;;;;;;;;;;5074447;28;20930;-78
2023/07/26 14:25:04;;;;;;;1.50;1.40;;;;;;;;;;5074461;28;20418;-79
2023/07/26 14:27:30;;;;;;;1.80;1.60;;;;;;;;;;5074409;28;20387;-78
2023/07/26 14:29:56;;;;;;;2.05;1.42;;;;;;;;;;5074337;28;20386;-79
2023/07/26 14:32:22;;;;;;;1.70;1.52;;;;;;;;;;5073970;28;20859;-78
2023/07/26 14:34:48;;;;;;;1.70;1.48;;;;;;;;;;5073792;28;20394;-78
2023/07/26 14:37:17;;;;;;;1.43;1.30;;;;;;;;;;5074058;28;20913;-78
2023/07/26 14:39:43;;;;;;;1.30;1.20;;;;;;;;;;5075351;28;20831;-77
2023/07/26 14:42:09;;;;;;;1.50;1.40;;;;;;;;;;5080906;28;20386;-78
2023/07/26 14:44:35;;;;;;;1.60;1.40;;;;;;;;;;5073938;28;20380;-77